sensor_id;sensor_type;location;lat;lon;timestamp;P1;durP1;ratioP1;P2;durP2;ratioP2
6566;SDS011;3317;43.994;22.878;2022-09-23T00:00:57;2.80;;;2.33;;
6566;SDS011;3317;43.994;22.878;2022-09-23T00:03:26;3.10;;;2.47;;
6566;SDS011;3317;43.994;22.878;2022-09-23T00:05:58;3.57;;;2.60;;
6566;SDS011;3317;43.994;22.878;2022-09-23T00:08:27;3.70;;;2.50;;
6566;SDS011;3317;43.994;22.878;2022-09-23T00:10:54;2.70;;;2.07;;
6566;SDS011;3317;43.994;22.878;2022-09-23T00:13:23;2.30;;;1.90;;
6566;SDS011;3317;43.994;22.878;2022-09-23T00:15:50;3.70;;;2.60;;
6566;SDS011;3317;43.994;22.878;2022-09-23T00:18:19;3.33;;;2.90;;
6566;SDS011;3317;43.994;22.878;2022-09-23T00:20:47;2.77;;;2.40;;
6566;SDS011;3317;43.994;22.878;2022-09-23T00:23:15;2.80;;;2.53;;
6566;SDS011;3317;43.994;22.878;2022-09-23T00:25:44;2.53;;;2.30;;
6566;SDS011;3317;43.994;22.878;2022-09-23T00:28:11;3.30;;;2.30;;
6566;SDS011;3317;43.994;22.878;2022-09-23T00:30:39;3.13;;;2.40;;
6566;SDS011;3317;43.994;22.878;2022-09-23T00:33:08;6.43;;;2.60;;
6566;SDS011;3317;43.994;22.878;2022-09-23T00:35:35;2.57;;;2.37;;
6566;SDS011;3317;43.994;22.878;2022-09-23T00:38:02;3.23;;;2.43;;
6566;SDS011;3317;43.994;22.878;2022-09-23T00:40:30;4.07;;;2.87;;
6566;SDS011;3317;43.994;22.878;2022-09-23T00:42:58;2.90;;;2.60;;
6566;SDS011;3317;43.994;22.878;2022-09-23T00:45:26;6.90;;;2.60;;
6566;SDS011;3317;43.994;22.878;2022-09-23T00:47:55;2.77;;;2.50;;
6566;SDS011;3317;43.994;22.878;2022-09-23T00:50:23;2.83;;;2.53;;
6566;SDS011;3317;43.994;22.878;2022-09-23T00:52:55;3.50;;;3.00;;
6566;SDS011;3317;43.994;22.878;2022-09-23T00:55:25;3.93;;;2.67;;
6566;SDS011;3317;43.994;22.878;2022-09-23T00:57:56;3.50;;;2.77;;
6566;SDS011;3317;43.994;22.878;2022-09-23T01:00:27;3.17;;;2.30;;
6566;SDS011;3317;43.994;22.878;2022-09-23T01:02:54;3.20;;;2.47;;
6566;SDS011;3317;43.994;22.878;2022-09-23T01:05:21;3.70;;;2.90;;
6566;SDS011;3317;43.994;22.878;2022-09-23T01:07:49;3.20;;;2.73;;
6566;SDS011;3317;43.994;22.878;2022-09-23T01:10:18;4.53;;;2.80;;
6566;SDS011;3317;43.994;22.878;2022-09-23T01:15:35;3.57;;;2.60;;
6566;SDS011;3317;43.994;22.878;2022-09-23T01:18:08;3.47;;;2.77;;
6566;SDS011;3317;43.994;22.878;2022-09-23T01:20:47;3.70;;;3.17;;
6566;SDS011;3317;43.994;22.878;2022-09-23T01:23:36;3.60;;;2.70;;
6566;SDS011;3317;43.994;22.878;2022-09-23T01:26:35;3.70;;;2.77;;
6566;SDS011;3317;43.994;22.878;2022-09-23T01:29:25;3.07;;;2.57;;
6566;SDS011;3317;43.994;22.878;2022-09-23T01:32:23;4.20;;;3.00;;
6566;SDS011;3317;43.994;22.878;2022-09-23T01:35:01;5.23;;;3.20;;
6566;SDS011;3317;43.994;22.878;2022-09-23T01:37:34;3.70;;;3.10;;
6566;SDS011;3317;43.994;22.878;2022-09-23T01:40:09;2.67;;;2.47;;
6566;SDS011;3317;43.994;22.878;2022-09-23T01:42:44;4.13;;;2.80;;
6566;SDS011;3317;43.994;22.878;2022-09-23T01:45:18;3.57;;;2.93;;
6566;SDS011;3317;43.994;22.878;2022-09-23T01:47:55;4.67;;;3.00;;
6566;SDS011;3317;43.994;22.878;2022-09-23T01:50:27;3.30;;;2.80;;
6566;SDS011;3317;43.994;22.878;2022-09-23T01:53:17;3.13;;;2.70;;
6566;SDS011;3317;43.994;22.878;2022-09-23T01:55:49;3.17;;;2.87;;
6566;SDS011;3317;43.994;22.878;2022-09-23T01:58:23;4.10;;;2.93;;
6566;SDS011;3317;43.994;22.878;2022-09-23T02:00:54;3.77;;;3.37;;
6566;SDS011;3317;43.994;22.878;2022-09-23T02:03:27;2.90;;;2.60;;
6566;SDS011;3317;43.994;22.878;2022-09-23T02:05:59;4.20;;;2.77;;
6566;SDS011;3317;43.994;22.878;2022-09-23T02:08:31;4.00;;;3.17;;
6566;SDS011;3317;43.994;22.878;2022-09-23T02:11:02;4.17;;;3.30;;
6566;SDS011;3317;43.994;22.878;2022-09-23T02:13:35;4.40;;;2.90;;
6566;SDS011;3317;43.994;22.878;2022-09-23T02:16:07;4.43;;;2.83;;
6566;SDS011;3317;43.994;22.878;2022-09-23T02:18:40;5.70;;;2.90;;
6566;SDS011;3317;43.994;22.878;2022-09-23T02:21:13;2.90;;;2.60;;
6566;SDS011;3317;43.994;22.878;2022-09-23T02:23:41;3.00;;;2.70;;
6566;SDS011;3317;43.994;22.878;2022-09-23T02:26:13;3.50;;;3.00;;
6566;SDS011;3317;43.994;22.878;2022-09-23T02:28:47;3.03;;;2.67;;
6566;SDS011;3317;43.994;22.878;2022-09-23T02:31:24;2.90;;;2.60;;
6566;SDS011;3317;43.994;22.878;2022-09-23T02:33:59;3.70;;;3.07;;
6566;SDS011;3317;43.994;22.878;2022-09-23T02:36:36;2.80;;;2.57;;
6566;SDS011;3317;43.994;22.878;2022-09-23T02:39:11;3.17;;;2.40;;
6566;SDS011;3317;43.994;22.878;2022-09-23T02:41:43;3.70;;;2.43;;
6566;SDS011;3317;43.994;22.878;2022-09-23T02:44:17;5.53;;;3.10;;
6566;SDS011;3317;43.994;22.878;2022-09-23T02:46:48;4.23;;;2.90;;
6566;SDS011;3317;43.994;22.878;2022-09-23T02:49:18;3.73;;;3.03;;
6566;SDS011;3317;43.994;22.878;2022-09-23T02:51:48;4.17;;;3.77;;
6566;SDS011;3317;43.994;22.878;2022-09-23T02:54:17;7.27;;;5.57;;
6566;SDS011;3317;43.994;22.878;2022-09-23T02:56:46;6.53;;;5.20;;
6566;SDS011;3317;43.994;22.878;2022-09-23T02:59:14;5.20;;;4.60;;
6566;SDS011;3317;43.994;22.878;2022-09-23T03:01:45;4.93;;;3.60;;
6566;SDS011;3317;43.994;22.878;2022-09-23T03:04:28;3.50;;;3.20;;
6566;SDS011;3317;43.994;22.878;2022-09-23T03:07:09;5.23;;;3.50;;
6566;SDS011;3317;43.994;22.878;2022-09-23T03:09:44;3.33;;;2.83;;
6566;SDS011;3317;43.994;22.878;2022-09-23T03:12:22;3.07;;;2.77;;
6566;SDS011;3317;43.994;22.878;2022-09-23T03:15:01;3.30;;;3.00;;
6566;SDS011;3317;43.994;22.878;2022-09-23T03:17:40;3.83;;;2.97;;
6566;SDS011;3317;43.994;22.878;2022-09-23T03:20:14;5.60;;;3.50;;
6566;SDS011;3317;43.994;22.878;2022-09-23T03:22:50;4.40;;;3.40;;
6566;SDS011;3317;43.994;22.878;2022-09-23T03:25:22;5.27;;;3.87;;
6566;SDS011;3317;43.994;22.878;2022-09-23T03:27:53;5.60;;;3.67;;
6566;SDS011;3317;43.994;22.878;2022-09-23T03:30:22;3.87;;;3.43;;
6566;SDS011;3317;43.994;22.878;2022-09-23T03:32:51;5.37;;;3.37;;
6566;SDS011;3317;43.994;22.878;2022-09-23T03:35:21;3.50;;;2.80;;
6566;SDS011;3317;43.994;22.878;2022-09-23T03:37:51;5.40;;;3.10;;
6566;SDS011;3317;43.994;22.878;2022-09-23T03:40:23;5.33;;;3.60;;
6566;SDS011;3317;43.994;22.878;2022-09-23T03:42:54;3.93;;;3.33;;
6566;SDS011;3317;43.994;22.878;2022-09-23T03:45:23;3.80;;;3.23;;
6566;SDS011;3317;43.994;22.878;2022-09-23T03:47:55;3.47;;;3.10;;
6566;SDS011;3317;43.994;22.878;2022-09-23T03:50:23;4.80;;;3.77;;
6566;SDS011;3317;43.994;22.878;2022-09-23T03:52:50;5.27;;;3.30;;
6566;SDS011;3317;43.994;22.878;2022-09-23T03:55:18;4.47;;;4.03;;
6566;SDS011;3317;43.994;22.878;2022-09-23T03:57:46;4.83;;;3.83;;
6566;SDS011;3317;43.994;22.878;2022-09-23T04:00:13;4.17;;;3.50;;
6566;SDS011;3317;43.994;22.878;2022-09-23T04:02:41;5.33;;;3.97;;
6566;SDS011;3317;43.994;22.878;2022-09-23T04:05:08;5.03;;;3.60;;
6566;SDS011;3317;43.994;22.878;2022-09-23T04:07:38;4.40;;;3.97;;
6566;SDS011;3317;43.994;22.878;2022-09-23T04:10:05;7.17;;;4.50;;
6566;SDS011;3317;43.994;22.878;2022-09-23T04:12:34;5.20;;;3.90;;
6566;SDS011;3317;43.994;22.878;2022-09-23T04:15:01;4.67;;;4.13;;
6566;SDS011;3317;43.994;22.878;2022-09-23T04:17:29;4.73;;;4.00;;
6566;SDS011;3317;43.994;22.878;2022-09-23T04:19:56;7.50;;;4.70;;
6566;SDS011;3317;43.994;22.878;2022-09-23T04:22:23;5.80;;;4.30;;
6566;SDS011;3317;43.994;22.878;2022-09-23T04:24:52;6.03;;;4.20;;
6566;SDS011;3317;43.994;22.878;2022-09-23T04:27:20;5.20;;;4.30;;
6566;SDS011;3317;43.994;22.878;2022-09-23T04:29:47;6.47;;;4.97;;
6566;SDS011;3317;43.994;22.878;2022-09-23T04:32:14;6.50;;;4.80;;
6566;SDS011;3317;43.994;22.878;2022-09-23T04:34:41;5.37;;;4.43;;
6566;SDS011;3317;43.994;22.878;2022-09-23T04:37:09;6.83;;;4.73;;
6566;SDS011;3317;43.994;22.878;2022-09-23T04:39:38;9.07;;;5.80;;
6566;SDS011;3317;43.994;22.878;2022-09-23T04:42:06;6.03;;;4.43;;
6566;SDS011;3317;43.994;22.878;2022-09-23T04:44:34;6.20;;;4.73;;
6566;SDS011;3317;43.994;22.878;2022-09-23T04:47:03;5.33;;;4.20;;
6566;SDS011;3317;43.994;22.878;2022-09-23T04:49:30;6.17;;;4.80;;
6566;SDS011;3317;43.994;22.878;2022-09-23T04:51:58;6.60;;;5.07;;
6566;SDS011;3317;43.994;22.878;2022-09-23T04:54:26;7.40;;;5.07;;
6566;SDS011;3317;43.994;22.878;2022-09-23T04:56:53;10.03;;;5.30;;
6566;SDS011;3317;43.994;22.878;2022-09-23T04:59:21;6.60;;;5.10;;
6566;SDS011;3317;43.994;22.878;2022-09-23T05:01:49;7.73;;;5.73;;
6566;SDS011;3317;43.994;22.878;2022-09-23T05:04:19;7.93;;;4.83;;
6566;SDS011;3317;43.994;22.878;2022-09-23T05:06:47;6.30;;;5.00;;
6566;SDS011;3317;43.994;22.878;2022-09-23T05:09:16;7.90;;;5.53;;
6566;SDS011;3317;43.994;22.878;2022-09-23T05:11:44;6.00;;;5.03;;
6566;SDS011;3317;43.994;22.878;2022-09-23T05:14:11;7.00;;;5.40;;
6566;SDS011;3317;43.994;22.878;2022-09-23T05:16:40;6.37;;;4.90;;
6566;SDS011;3317;43.994;22.878;2022-09-23T05:19:06;9.77;;;5.13;;
6566;SDS011;3317;43.994;22.878;2022-09-23T05:21:33;6.50;;;4.57;;
6566;SDS011;3317;43.994;22.878;2022-09-23T05:24:02;5.33;;;4.67;;
6566;SDS011;3317;43.994;22.878;2022-09-23T05:26:29;5.63;;;4.90;;
6566;SDS011;3317;43.994;22.878;2022-09-23T05:28:57;7.83;;;5.80;;
6566;SDS011;3317;43.994;22.878;2022-09-23T05:31:26;7.83;;;5.70;;
6566;SDS011;3317;43.994;22.878;2022-09-23T05:33:56;8.23;;;6.40;;
6566;SDS011;3317;43.994;22.878;2022-09-23T05:36:24;5.73;;;4.90;;
6566;SDS011;3317;43.994;22.878;2022-09-23T05:38:53;7.47;;;5.77;;
6566;SDS011;3317;43.994;22.878;2022-09-23T05:41:21;10.73;;;7.30;;
6566;SDS011;3317;43.994;22.878;2022-09-23T05:43:49;8.70;;;6.57;;
6566;SDS011;3317;43.994;22.878;2022-09-23T05:46:17;8.90;;;6.10;;
6566;SDS011;3317;43.994;22.878;2022-09-23T05:48:45;8.63;;;5.73;;
6566;SDS011;3317;43.994;22.878;2022-09-23T05:51:15;8.60;;;6.37;;
6566;SDS011;3317;43.994;22.878;2022-09-23T05:53:44;8.03;;;6.30;;
6566;SDS011;3317;43.994;22.878;2022-09-23T05:56:12;10.13;;;7.30;;
6566;SDS011;3317;43.994;22.878;2022-09-23T05:58:39;15.17;;;6.73;;
6566;SDS011;3317;43.994;22.878;2022-09-23T06:01:09;8.57;;;6.83;;
6566;SDS011;3317;43.994;22.878;2022-09-23T06:03:37;6.43;;;5.10;;
6566;SDS011;3317;43.994;22.878;2022-09-23T06:06:05;7.73;;;5.87;;
6566;SDS011;3317;43.994;22.878;2022-09-23T06:08:35;6.73;;;4.80;;
6566;SDS011;3317;43.994;22.878;2022-09-23T06:11:05;5.93;;;4.67;;
6566;SDS011;3317;43.994;22.878;2022-09-23T06:13:34;7.00;;;5.10;;
6566;SDS011;3317;43.994;22.878;2022-09-23T06:16:03;9.07;;;5.40;;
6566;SDS011;3317;43.994;22.878;2022-09-23T06:18:32;8.00;;;4.90;;
6566;SDS011;3317;43.994;22.878;2022-09-23T06:21:00;7.47;;;5.43;;
6566;SDS011;3317;43.994;22.878;2022-09-23T06:23:30;8.30;;;5.20;;
6566;SDS011;3317;43.994;22.878;2022-09-23T06:26:02;9.47;;;5.67;;
6566;SDS011;3317;43.994;22.878;2022-09-23T06:28:33;6.50;;;4.77;;
6566;SDS011;3317;43.994;22.878;2022-09-23T06:31:02;9.17;;;5.77;;
6566;SDS011;3317;43.994;22.878;2022-09-23T06:33:32;14.30;;;5.67;;
6566;SDS011;3317;43.994;22.878;2022-09-23T06:36:01;7.93;;;6.40;;
6566;SDS011;3317;43.994;22.878;2022-09-23T06:38:33;10.97;;;6.90;;
6566;SDS011;3317;43.994;22.878;2022-09-23T06:41:06;10.93;;;6.97;;
6566;SDS011;3317;43.994;22.878;2022-09-23T06:43:34;12.33;;;7.60;;
6566;SDS011;3317;43.994;22.878;2022-09-23T06:46:02;8.63;;;5.70;;
6566;SDS011;3317;43.994;22.878;2022-09-23T06:48:31;6.53;;;4.47;;
6566;SDS011;3317;43.994;22.878;2022-09-23T06:51:00;7.20;;;4.57;;
6566;SDS011;3317;43.994;22.878;2022-09-23T06:53:36;4.43;;;3.80;;
6566;SDS011;3317;43.994;22.878;2022-09-23T06:56:05;5.40;;;4.07;;
6566;SDS011;3317;43.994;22.878;2022-09-23T06:58:35;7.13;;;4.60;;
6566;SDS011;3317;43.994;22.878;2022-09-23T07:01:05;4.90;;;3.53;;
6566;SDS011;3317;43.994;22.878;2022-09-23T07:03:34;4.60;;;3.50;;
6566;SDS011;3317;43.994;22.878;2022-09-23T07:06:02;4.33;;;3.40;;
6566;SDS011;3317;43.994;22.878;2022-09-23T07:08:31;4.20;;;3.60;;
6566;SDS011;3317;43.994;22.878;2022-09-23T07:10:59;6.40;;;3.07;;
6566;SDS011;3317;43.994;22.878;2022-09-23T07:13:30;5.30;;;4.10;;
6566;SDS011;3317;43.994;22.878;2022-09-23T07:15:58;4.70;;;3.30;;
6566;SDS011;3317;43.994;22.878;2022-09-23T07:18:26;5.53;;;3.60;;
6566;SDS011;3317;43.994;22.878;2022-09-23T07:20:55;6.07;;;3.70;;
6566;SDS011;3317;43.994;22.878;2022-09-23T07:23:23;3.53;;;3.10;;
6566;SDS011;3317;43.994;22.878;2022-09-23T07:25:50;3.90;;;3.17;;
6566;SDS011;3317;43.994;22.878;2022-09-23T07:28:18;5.40;;;3.70;;
6566;SDS011;3317;43.994;22.878;2022-09-23T07:30:47;4.90;;;3.37;;
6566;SDS011;3317;43.994;22.878;2022-09-23T07:33:14;3.60;;;2.77;;
6566;SDS011;3317;43.994;22.878;2022-09-23T07:35:41;7.73;;;3.10;;
6566;SDS011;3317;43.994;22.878;2022-09-23T07:38:09;3.33;;;2.87;;
6566;SDS011;3317;43.994;22.878;2022-09-23T07:40:37;7.47;;;3.07;;
6566;SDS011;3317;43.994;22.878;2022-09-23T07:43:04;4.27;;;3.13;;
6566;SDS011;3317;43.994;22.878;2022-09-23T07:45:33;4.33;;;3.10;;
6566;SDS011;3317;43.994;22.878;2022-09-23T07:48:01;5.90;;;3.37;;
6566;SDS011;3317;43.994;22.878;2022-09-23T07:50:29;6.10;;;4.03;;
6566;SDS011;3317;43.994;22.878;2022-09-23T07:52:56;3.67;;;3.30;;
6566;SDS011;3317;43.994;22.878;2022-09-23T07:55:23;5.83;;;3.90;;
6566;SDS011;3317;43.994;22.878;2022-09-23T07:57:50;3.53;;;3.13;;
6566;SDS011;3317;43.994;22.878;2022-09-23T08:00:19;3.87;;;2.80;;
6566;SDS011;3317;43.994;22.878;2022-09-23T08:02:46;4.70;;;3.60;;
6566;SDS011;3317;43.994;22.878;2022-09-23T08:05:15;4.70;;;2.97;;
6566;SDS011;3317;43.994;22.878;2022-09-23T08:07:42;5.10;;;3.57;;
6566;SDS011;3317;43.994;22.878;2022-09-23T08:10:09;4.97;;;2.87;;
6566;SDS011;3317;43.994;22.878;2022-09-23T08:12:37;7.97;;;2.70;;
6566;SDS011;3317;43.994;22.878;2022-09-23T08:15:04;3.20;;;2.90;;
6566;SDS011;3317;43.994;22.878;2022-09-23T08:17:32;4.23;;;2.80;;
6566;SDS011;3317;43.994;22.878;2022-09-23T08:20:00;3.10;;;2.80;;
6566;SDS011;3317;43.994;22.878;2022-09-23T08:22:30;2.97;;;2.60;;
6566;SDS011;3317;43.994;22.878;2022-09-23T08:24:57;3.40;;;2.60;;
6566;SDS011;3317;43.994;22.878;2022-09-23T08:27:24;3.60;;;2.83;;
6566;SDS011;3317;43.994;22.878;2022-09-23T08:29:52;4.07;;;2.60;;
6566;SDS011;3317;43.994;22.878;2022-09-23T08:32:20;3.50;;;2.80;;
6566;SDS011;3317;43.994;22.878;2022-09-23T08:34:48;3.10;;;2.37;;
6566;SDS011;3317;43.994;22.878;2022-09-23T08:37:15;4.20;;;2.93;;
6566;SDS011;3317;43.994;22.878;2022-09-23T08:39:44;2.60;;;2.40;;
6566;SDS011;3317;43.994;22.878;2022-09-23T08:42:13;3.00;;;2.70;;
6566;SDS011;3317;43.994;22.878;2022-09-23T08:44:46;3.80;;;2.93;;
6566;SDS011;3317;43.994;22.878;2022-09-23T08:47:18;4.40;;;2.90;;
6566;SDS011;3317;43.994;22.878;2022-09-23T08:49:59;7.10;;;3.73;;
6566;SDS011;3317;43.994;22.878;2022-09-23T08:52:33;3.03;;;2.30;;
6566;SDS011;3317;43.994;22.878;2022-09-23T08:55:09;3.20;;;2.73;;
6566;SDS011;3317;43.994;22.878;2022-09-23T08:57:41;2.80;;;2.30;;
6566;SDS011;3317;43.994;22.878;2022-09-23T09:00:18;3.50;;;2.60;;
6566;SDS011;3317;43.994;22.878;2022-09-23T09:02:47;2.43;;;2.17;;
6566;SDS011;3317;43.994;22.878;2022-09-23T09:05:16;2.80;;;2.40;;
6566;SDS011;3317;43.994;22.878;2022-09-23T09:07:50;4.10;;;2.90;;
6566;SDS011;3317;43.994;22.878;2022-09-23T09:10:21;4.20;;;2.90;;
6566;SDS011;3317;43.994;22.878;2022-09-23T09:12:53;3.10;;;2.60;;
6566;SDS011;3317;43.994;22.878;2022-09-23T09:15:28;2.70;;;2.50;;
6566;SDS011;3317;43.994;22.878;2022-09-23T09:17:58;3.40;;;2.70;;
6566;SDS011;3317;43.994;22.878;2022-09-23T09:20:31;3.00;;;2.63;;
6566;SDS011;3317;43.994;22.878;2022-09-23T09:23:06;2.23;;;2.03;;
6566;SDS011;3317;43.994;22.878;2022-09-23T09:25:47;3.00;;;2.10;;
6566;SDS011;3317;43.994;22.878;2022-09-23T09:28:18;2.47;;;1.83;;
6566;SDS011;3317;43.994;22.878;2022-09-23T09:30:49;4.70;;;2.73;;
6566;SDS011;3317;43.994;22.878;2022-09-23T09:33:23;2.90;;;2.00;;
6566;SDS011;3317;43.994;22.878;2022-09-23T09:36:05;3.20;;;2.23;;
6566;SDS011;3317;43.994;22.878;2022-09-23T09:39:00;2.10;;;1.90;;
6566;SDS011;3317;43.994;22.878;2022-09-23T09:41:29;2.57;;;1.90;;
6566;SDS011;3317;43.994;22.878;2022-09-23T09:43:57;2.70;;;1.90;;
6566;SDS011;3317;43.994;22.878;2022-09-23T09:46:36;3.50;;;2.30;;
6566;SDS011;3317;43.994;22.878;2022-09-23T09:49:17;2.70;;;1.97;;
6566;SDS011;3317;43.994;22.878;2022-09-23T09:52:13;2.63;;;2.17;;
6566;SDS011;3317;43.994;22.878;2022-09-23T09:54:46;4.33;;;1.73;;
6566;SDS011;3317;43.994;22.878;2022-09-23T09:57:36;2.10;;;1.90;;
6566;SDS011;3317;43.994;22.878;2022-09-23T10:00:18;2.97;;;2.17;;
6566;SDS011;3317;43.994;22.878;2022-09-23T10:03:04;2.57;;;1.90;;
6566;SDS011;3317;43.994;22.878;2022-09-23T10:05:50;4.90;;;2.17;;
6566;SDS011;3317;43.994;22.878;2022-09-23T10:08:22;2.17;;;1.90;;
6566;SDS011;3317;43.994;22.878;2022-09-23T10:10:51;2.27;;;1.90;;
6566;SDS011;3317;43.994;22.878;2022-09-23T10:13:28;3.93;;;3.37;;
6566;SDS011;3317;43.994;22.878;2022-09-23T10:15:56;3.97;;;2.27;;
6566;SDS011;3317;43.994;22.878;2022-09-23T10:18:27;4.10;;;2.23;;
6566;SDS011;3317;43.994;22.878;2022-09-23T10:21:01;2.50;;;1.67;;
6566;SDS011;3317;43.994;22.878;2022-09-23T10:23:32;1.80;;;1.50;;
6566;SDS011;3317;43.994;22.878;2022-09-23T10:26:10;4.77;;;1.60;;
6566;SDS011;3317;43.994;22.878;2022-09-23T10:28:45;2.80;;;1.40;;
6566;SDS011;3317;43.994;22.878;2022-09-23T10:31:17;2.07;;;1.53;;
6566;SDS011;3317;43.994;22.878;2022-09-23T10:33:50;2.47;;;2.17;;
6566;SDS011;3317;43.994;22.878;2022-09-23T10:36:19;6.23;;;2.10;;
6566;SDS011;3317;43.994;22.878;2022-09-23T10:38:47;3.10;;;2.50;;
6566;SDS011;3317;43.994;22.878;2022-09-23T10:41:22;3.80;;;2.93;;
6566;SDS011;3317;43.994;22.878;2022-09-23T10:44:29;2.43;;;1.40;;
6566;SDS011;3317;43.994;22.878;2022-09-23T10:47:27;6.77;;;2.50;;
6566;SDS011;3317;43.994;22.878;2022-09-23T10:50:09;8.07;;;4.30;;
6566;SDS011;3317;43.994;22.878;2022-09-23T10:52:55;10.60;;;3.27;;
6566;SDS011;3317;43.994;22.878;2022-09-23T10:55:33;2.90;;;1.80;;
6566;SDS011;3317;43.994;22.878;2022-09-23T10:58:13;7.60;;;2.50;;
6566;SDS011;3317;43.994;22.878;2022-09-23T11:01:14;4.70;;;2.27;;
6566;SDS011;3317;43.994;22.878;2022-09-23T11:04:04;3.63;;;1.97;;
6566;SDS011;3317;43.994;22.878;2022-09-23T11:06:56;2.27;;;1.77;;
6566;SDS011;3317;43.994;22.878;2022-09-23T11:09:34;2.77;;;1.50;;
6566;SDS011;3317;43.994;22.878;2022-09-23T11:12:16;5.27;;;1.50;;
6566;SDS011;3317;43.994;22.878;2022-09-23T11:20:53;4.20;;;1.53;;
6566;SDS011;3317;43.994;22.878;2022-09-23T11:23:35;1.67;;;1.43;;
6566;SDS011;3317;43.994;22.878;2022-09-23T11:26:26;1.57;;;1.40;;
6566;SDS011;3317;43.994;22.878;2022-09-23T11:29:08;3.07;;;2.40;;
6566;SDS011;3317;43.994;22.878;2022-09-23T11:31:50;5.20;;;1.87;;
6566;SDS011;3317;43.994;22.878;2022-09-23T11:34:39;5.47;;;1.73;;
6566;SDS011;3317;43.994;22.878;2022-09-23T11:37:26;4.10;;;2.00;;
6566;SDS011;3317;43.994;22.878;2022-09-23T11:39:56;9.57;;;5.50;;
6566;SDS011;3317;43.994;22.878;2022-09-23T11:42:28;3.70;;;2.40;;
6566;SDS011;3317;43.994;22.878;2022-09-23T11:45:00;13.43;;;7.23;;
6566;SDS011;3317;43.994;22.878;2022-09-23T11:47:38;4.33;;;2.23;;
6566;SDS011;3317;43.994;22.878;2022-09-23T11:50:14;2.63;;;2.13;;
6566;SDS011;3317;43.994;22.878;2022-09-23T11:52:55;22.60;;;10.43;;
6566;SDS011;3317;43.994;22.878;2022-09-23T11:55:29;4.10;;;2.43;;
6566;SDS011;3317;43.994;22.878;2022-09-23T11:58:02;19.00;;;10.27;;
6566;SDS011;3317;43.994;22.878;2022-09-23T12:00:36;3.97;;;2.30;;
6566;SDS011;3317;43.994;22.878;2022-09-23T12:03:11;13.90;;;5.70;;
6566;SDS011;3317;43.994;22.878;2022-09-23T12:05:43;6.93;;;4.40;;
6566;SDS011;3317;43.994;22.878;2022-09-23T12:08:16;5.70;;;2.80;;
6566;SDS011;3317;43.994;22.878;2022-09-23T12:10:54;5.20;;;2.90;;
6566;SDS011;3317;43.994;22.878;2022-09-23T12:13:31;15.10;;;6.93;;
6566;SDS011;3317;43.994;22.878;2022-09-23T12:16:13;3.47;;;2.43;;
6566;SDS011;3317;43.994;22.878;2022-09-23T12:18:59;14.43;;;5.50;;
6566;SDS011;3317;43.994;22.878;2022-09-23T12:21:37;6.53;;;1.90;;
6566;SDS011;3317;43.994;22.878;2022-09-23T12:24:31;1.90;;;1.70;;
6566;SDS011;3317;43.994;22.878;2022-09-23T12:27:18;3.80;;;2.80;;
6566;SDS011;3317;43.994;22.878;2022-09-23T12:29:54;3.60;;;2.60;;
6566;SDS011;3317;43.994;22.878;2022-09-23T12:32:24;4.47;;;2.63;;
6566;SDS011;3317;43.994;22.878;2022-09-23T12:34:52;3.33;;;2.00;;
6566;SDS011;3317;43.994;22.878;2022-09-23T12:37:22;3.20;;;1.87;;
6566;SDS011;3317;43.994;22.878;2022-09-23T12:39:53;5.10;;;3.07;;
6566;SDS011;3317;43.994;22.878;2022-09-23T12:42:24;4.07;;;3.13;;
6566;SDS011;3317;43.994;22.878;2022-09-23T12:44:52;2.40;;;2.10;;
6566;SDS011;3317;43.994;22.878;2022-09-23T12:47:58;3.57;;;2.30;;
6566;SDS011;3317;43.994;22.878;2022-09-23T12:56:19;4.73;;;2.80;;
6566;SDS011;3317;43.994;22.878;2022-09-23T13:01:44;4.20;;;2.90;;
6566;SDS011;3317;43.994;22.878;2022-09-23T13:04:27;3.67;;;2.43;;
6566;SDS011;3317;43.994;22.878;2022-09-23T13:07:14;2.70;;;1.87;;
6566;SDS011;3317;43.994;22.878;2022-09-23T13:09:45;2.13;;;1.93;;
6566;SDS011;3317;43.994;22.878;2022-09-23T13:12:18;3.30;;;1.80;;
6566;SDS011;3317;43.994;22.878;2022-09-23T13:14:50;2.60;;;1.90;;
6566;SDS011;3317;43.994;22.878;2022-09-23T13:17:28;2.00;;;1.60;;
6566;SDS011;3317;43.994;22.878;2022-09-23T13:19:59;1.90;;;1.60;;
6566;SDS011;3317;43.994;22.878;2022-09-23T13:22:39;2.37;;;1.90;;
6566;SDS011;3317;43.994;22.878;2022-09-23T13:25:25;3.40;;;1.67;;
6566;SDS011;3317;43.994;22.878;2022-09-23T13:27:56;2.70;;;2.20;;
6566;SDS011;3317;43.994;22.878;2022-09-23T13:30:26;2.57;;;2.10;;
6566;SDS011;3317;43.994;22.878;2022-09-23T13:33:02;2.80;;;2.03;;
6566;SDS011;3317;43.994;22.878;2022-09-23T13:35:37;3.73;;;1.90;;
6566;SDS011;3317;43.994;22.878;2022-09-23T13:38:08;2.20;;;1.60;;
6566;SDS011;3317;43.994;22.878;2022-09-23T13:40:36;2.50;;;1.87;;
6566;SDS011;3317;43.994;22.878;2022-09-23T13:43:09;2.70;;;1.40;;
6566;SDS011;3317;43.994;22.878;2022-09-23T13:45:47;2.43;;;1.80;;
6566;SDS011;3317;43.994;22.878;2022-09-23T13:48:16;2.30;;;1.67;;
6566;SDS011;3317;43.994;22.878;2022-09-23T13:50:48;2.53;;;1.33;;
6566;SDS011;3317;43.994;22.878;2022-09-23T13:53:19;1.93;;;1.70;;
6566;SDS011;3317;43.994;22.878;2022-09-23T13:56:00;2.37;;;1.80;;
6566;SDS011;3317;43.994;22.878;2022-09-23T13:58:31;3.10;;;2.00;;
6566;SDS011;3317;43.994;22.878;2022-09-23T14:01:00;2.60;;;1.93;;
6566;SDS011;3317;43.994;22.878;2022-09-23T14:03:28;3.17;;;1.73;;
6566;SDS011;3317;43.994;22.878;2022-09-23T14:05:56;2.60;;;1.73;;
6566;SDS011;3317;43.994;22.878;2022-09-23T14:08:24;3.00;;;1.90;;
6566;SDS011;3317;43.994;22.878;2022-09-23T14:10:54;3.30;;;2.03;;
6566;SDS011;3317;43.994;22.878;2022-09-23T14:13:23;3.30;;;2.20;;
6566;SDS011;3317;43.994;22.878;2022-09-23T14:15:55;2.70;;;2.20;;
6566;SDS011;3317;43.994;22.878;2022-09-23T14:18:27;2.60;;;2.00;;
6566;SDS011;3317;43.994;22.878;2022-09-23T14:21:00;3.63;;;2.27;;
6566;SDS011;3317;43.994;22.878;2022-09-23T14:23:28;3.10;;;2.07;;
6566;SDS011;3317;43.994;22.878;2022-09-23T14:25:54;2.33;;;1.97;;
6566;SDS011;3317;43.994;22.878;2022-09-23T14:28:24;3.63;;;1.63;;
6566;SDS011;3317;43.994;22.878;2022-09-23T14:30:54;2.90;;;1.40;;
6566;SDS011;3317;43.994;22.878;2022-09-23T14:33:24;6.73;;;1.60;;
6566;SDS011;3317;43.994;22.878;2022-09-23T14:35:53;5.90;;;1.97;;
6566;SDS011;3317;43.994;22.878;2022-09-23T14:38:27;2.93;;;1.70;;
6566;SDS011;3317;43.994;22.878;2022-09-23T14:41:20;6.90;;;2.20;;
6566;SDS011;3317;43.994;22.878;2022-09-23T14:43:55;4.20;;;1.90;;
6566;SDS011;3317;43.994;22.878;2022-09-23T14:46:36;2.80;;;1.70;;
6566;SDS011;3317;43.994;22.878;2022-09-23T14:49:04;2.53;;;1.80;;
6566;SDS011;3317;43.994;22.878;2022-09-23T14:51:43;4.07;;;1.93;;
6566;SDS011;3317;43.994;22.878;2022-09-23T14:57:18;3.10;;;1.90;;
6566;SDS011;3317;43.994;22.878;2022-09-23T14:59:51;3.17;;;1.73;;
6566;SDS011;3317;43.994;22.878;2022-09-23T15:02:28;5.03;;;1.70;;
6566;SDS011;3317;43.994;22.878;2022-09-23T15:05:10;2.90;;;1.73;;
6566;SDS011;3317;43.994;22.878;2022-09-23T15:07:41;3.00;;;2.00;;
6566;SDS011;3317;43.994;22.878;2022-09-23T15:10:15;2.77;;;1.77;;
6566;SDS011;3317;43.994;22.878;2022-09-23T15:12:48;2.90;;;2.20;;
6566;SDS011;3317;43.994;22.878;2022-09-23T15:15:17;2.40;;;1.60;;
6566;SDS011;3317;43.994;22.878;2022-09-23T15:17:46;2.63;;;1.70;;
6566;SDS011;3317;43.994;22.878;2022-09-23T15:20:19;2.70;;;1.67;;
6566;SDS011;3317;43.994;22.878;2022-09-23T15:22:49;3.00;;;1.90;;
6566;SDS011;3317;43.994;22.878;2022-09-23T15:25:24;1.93;;;1.73;;
6566;SDS011;3317;43.994;22.878;2022-09-23T15:27:56;3.10;;;1.80;;
6566;SDS011;3317;43.994;22.878;2022-09-23T15:30:26;2.70;;;2.00;;
6566;SDS011;3317;43.994;22.878;2022-09-23T15:32:56;3.90;;;1.90;;
6566;SDS011;3317;43.994;22.878;2022-09-23T15:35:25;4.87;;;1.97;;
6566;SDS011;3317;43.994;22.878;2022-09-23T15:37:56;3.63;;;2.50;;
6566;SDS011;3317;43.994;22.878;2022-09-23T15:40:25;6.53;;;2.27;;
6566;SDS011;3317;43.994;22.878;2022-09-23T15:42:55;4.07;;;2.10;;
6566;SDS011;3317;43.994;22.878;2022-09-23T15:45:26;5.40;;;2.10;;
6566;SDS011;3317;43.994;22.878;2022-09-23T15:47:59;4.97;;;2.23;;
6566;SDS011;3317;43.994;22.878;2022-09-23T15:50:32;2.27;;;2.00;;
6566;SDS011;3317;43.994;22.878;2022-09-23T15:52:59;2.43;;;2.17;;